createdAt,value
2022-11-21T00:02:00.036Z,22.42
2022-11-21T00:07:01.494Z,21.10
2022-11-21T00:12:03.026Z,24.65
2022-11-21T00:17:04.397Z,23.92
2022-11-21T00:22:06.050Z,21.65
2022-11-21T00:27:07.401Z,24.30
2022-11-21T00:32:08.880Z,22.02
2022-11-21T00:37:10.281Z,21.45
2022-11-21T00:42:11.636Z,19.27
2022-11-21T00:47:12.989Z,18.40
2022-11-21T00:52:14.433Z,17.42
2022-11-21T00:57:15.783Z,17.70
2022-11-21T01:02:17.244Z,16.27
2022-11-21T01:07:18.699Z,17.42
2022-11-21T01:12:20.156Z,18.00
2022-11-21T01:17:21.559Z,19.27
2022-11-21T01:22:23.168Z,17.63
2022-11-21T01:27:24.651Z,17.45
2022-11-21T01:32:26.023Z,19.17
2022-11-21T01:37:27.417Z,20.02
2022-11-21T01:42:28.828Z,19.42
2022-11-21T01:47:30.384Z,22.55
2022-11-21T01:52:32.682Z,22.38
2022-11-21T01:57:48.212Z,19.10
2022-11-21T02:02:53.707Z,17.92
2022-11-21T02:08:03.881Z,19.50
2022-11-21T02:13:05.811Z,18.25
2022-11-21T02:18:09.732Z,16.27
2022-11-21T02:23:23.525Z,17.90
2022-11-21T02:28:25.001Z,17.58
2022-11-21T02:33:26.548Z,16.70
2022-11-21T02:38:35.117Z,19.13
2022-11-21T02:43:47.785Z,20.88
2022-11-21T02:48:49.285Z,21.58
2022-11-21T02:53:50.660Z,23.67
2022-11-21T02:58:52.187Z,25.05
2022-11-21T03:03:53.575Z,24.90
2022-11-21T03:08:55.025Z,23.75
2022-11-21T03:13:56.454Z,23.23
2022-11-21T03:18:58.056Z,24.10
2022-11-21T03:23:59.406Z,23.00
2022-11-21T03:29:00.905Z,25.35
2022-11-21T03:34:02.516Z,26.42
2022-11-21T03:39:03.914Z,23.17
2022-11-21T03:44:08.319Z,22.90
2022-11-21T03:49:10.790Z,24.73
2022-11-21T03:54:12.292Z,22.67
2022-11-21T03:59:13.675Z,25.70
2022-11-21T04:04:15.160Z,23.95
2022-11-21T04:09:16.535Z,26.35
2022-11-21T04:14:18.118Z,27.15
2022-11-21T04:19:19.465Z,28.48
2022-11-21T04:24:20.837Z,22.00
2022-11-21T04:29:22.356Z,28.80
2022-11-21T04:34:23.710Z,24.08
2022-11-21T04:39:25.116Z,24.23
2022-11-21T04:44:26.787Z,24.95
2022-11-21T04:49:28.366Z,28.08
2022-11-21T04:54:30.301Z,23.90
2022-11-21T04:59:31.982Z,22.75
2022-11-21T05:04:33.402Z,26.65
2022-11-21T05:09:34.925Z,26.13
2022-11-21T05:14:36.265Z,34.05
2022-11-21T05:19:37.603Z,30.77
2022-11-21T05:24:39.306Z,30.35
2022-11-21T05:29:40.722Z,31.02
2022-11-21T05:34:42.086Z,31.10
2022-11-21T05:39:43.491Z,26.88
2022-11-21T05:44:44.978Z,24.92
2022-11-21T05:49:46.377Z,29.75
2022-11-21T05:54:47.915Z,33.92
2022-11-21T05:59:49.475Z,26.30
2022-11-21T06:04:51.050Z,32.28
2022-11-21T06:09:52.506Z,33.75
2022-11-21T06:14:53.915Z,33.83
2022-11-21T06:19:55.290Z,36.15
2022-11-21T06:24:56.717Z,31.98
2022-11-21T06:29:58.142Z,24.70
2022-11-21T06:35:00.840Z,29.27
2022-11-21T06:40:02.562Z,34.83
2022-11-21T06:45:04.657Z,33.05
2022-11-21T06:50:06.569Z,28.92
2022-11-21T06:55:10.281Z,34.88
2022-11-21T07:00:12.346Z,32.80
2022-11-21T07:05:13.771Z,33.22
2022-11-21T07:10:15.392Z,33.90
2022-11-21T07:15:16.914Z,30.85
2022-11-21T07:20:18.373Z,28.90
2022-11-21T07:25:19.915Z,26.13
2022-11-21T07:30:21.459Z,26.15
2022-11-21T07:35:23.152Z,26.30
2022-11-21T07:40:24.707Z,25.00
2022-11-21T07:45:26.159Z,24.73
2022-11-21T07:50:28.368Z,25.38
2022-11-21T07:55:30.029Z,26.45
2022-11-21T08:00:33.155Z,26.77
2022-11-21T08:05:38.724Z,29.55
2022-11-21T08:10:42.694Z,31.88
2022-11-21T08:15:46.563Z,28.35
2022-11-21T08:20:47.979Z,30.00
2022-11-21T08:25:51.990Z,29.73
2022-11-21T08:30:53.735Z,32.10
2022-11-21T08:35:55.279Z,34.65
2022-11-21T08:41:17.768Z,33.75
2022-11-21T08:46:19.379Z,34.35
2022-11-21T08:51:21.431Z,32.78
2022-11-21T08:56:22.945Z,30.75
2022-11-21T09:01:24.464Z,30.50
2022-11-21T09:06:25.957Z,29.00
2022-11-21T09:11:27.384Z,26.25
2022-11-21T09:16:47.455Z,25.88
2022-11-21T09:21:50.096Z,25.67
2022-11-21T09:26:51.530Z,30.25
2022-11-21T09:31:52.989Z,29.50
2022-11-21T09:36:55.467Z,35.17
2022-11-21T09:42:28.455Z,38.17
2022-11-21T09:47:32.686Z,43.42
2022-11-21T09:52:43.980Z,36.45
2022-11-21T09:57:48.777Z,35.65
2022-11-21T10:02:51.783Z,36.40
2022-11-21T10:07:58.659Z,39.72
2022-11-21T10:13:18.237Z,42.13
2022-11-21T10:18:50.047Z,44.10
2022-11-21T10:24:02.066Z,44.65
2022-11-21T10:29:18.780Z,40.88
2022-11-21T10:34:25.448Z,38.03
2022-11-21T10:39:50.153Z,41.38
2022-11-21T10:45:10.579Z,42.97
2022-11-21T10:50:23.242Z,40.83
2022-11-21T10:55:24.793Z,41.42
2022-11-21T11:00:27.949Z,39.90
2022-11-21T11:05:30.911Z,39.38
2022-11-21T11:10:35.171Z,39.75
2022-11-21T11:15:39.486Z,45.92
2022-11-21T11:20:45.073Z,52.53
2022-11-21T11:25:57.907Z,39.28
2022-11-21T11:31:00.392Z,40.75
2022-11-21T11:36:12.531Z,37.03
2022-11-21T11:42:00.529Z,40.30
2022-11-21T11:52:38.600Z,42.15
2022-11-21T11:57:42.983Z,41.55
2022-11-21T12:02:57.614Z,37.95
2022-11-21T12:13:37.735Z,36.90
2022-11-21T12:19:13.033Z,39.13
2022-11-21T12:24:14.465Z,38.15
2022-11-21T12:29:32.335Z,43.70
2022-11-21T12:35:11.133Z,30.88
2022-11-21T12:40:43.439Z,27.48
2022-11-21T12:45:47.730Z,28.08
2022-11-21T12:51:36.048Z,29.08
2022-11-21T12:56:55.023Z,27.02
2022-11-21T13:02:12.186Z,27.05
2022-11-21T13:12:28.828Z,25.98
2022-11-21T13:17:36.374Z,36.28
2022-11-21T13:22:37.670Z,36.25
2022-11-21T13:27:40.940Z,27.33
2022-11-21T13:32:50.953Z,25.17
2022-11-21T13:37:52.507Z,26.20
2022-11-21T13:43:32.095Z,22.02
2022-11-21T13:48:31.267Z,23.33
2022-11-21T13:53:32.572Z,20.52
2022-11-21T13:58:54.622Z,21.38
2022-11-21T14:04:17.997Z,23.45
2022-11-21T14:09:24.141Z,23.55
2022-11-21T14:14:31.451Z,18.87
2022-11-21T14:19:34.747Z,19.13
2022-11-21T14:24:39.560Z,17.77
2022-11-21T14:29:42.246Z,20.67
2022-11-21T14:34:43.695Z,17.73
2022-11-21T14:39:52.745Z,15.35
2022-11-21T14:45:15.591Z,16.80
2022-11-21T14:50:25.664Z,14.15
2022-11-21T14:55:30.990Z,14.00
2022-11-21T15:01:02.934Z,13.27
2022-11-21T15:06:06.401Z,16.52
2022-11-21T15:11:09.265Z,13.90
2022-11-21T15:16:11.104Z,14.43
2022-11-21T15:21:16.244Z,13.60
2022-11-21T15:26:35.726Z,14.18
2022-11-21T15:31:37.097Z,14.30
2022-11-21T15:36:38.611Z,15.70
2022-11-21T15:41:40.154Z,18.85
2022-11-21T15:46:47.162Z,13.98
2022-11-21T15:57:10.964Z,13.95
2022-11-21T15:57:12.209Z,13.48
2022-11-21T16:02:14.433Z,14.65
2022-11-21T16:07:15.901Z,15.27
2022-11-21T16:12:17.488Z,14.07
2022-11-21T16:17:18.909Z,14.52
2022-11-21T16:22:20.519Z,18.73
2022-11-21T16:27:21.918Z,19.70
2022-11-21T16:32:25.973Z,12.27
2022-11-21T16:37:27.407Z,15.55
2022-11-21T16:42:28.950Z,13.48
2022-11-21T16:47:30.488Z,14.88
2022-11-21T16:52:37.963Z,16.65
2022-11-21T16:57:39.414Z,19.08
2022-11-21T17:02:40.884Z,24.52
2022-11-21T17:07:42.469Z,25.40
2022-11-21T17:12:44.466Z,22.50
2022-11-21T17:17:45.926Z,22.25
2022-11-21T17:22:47.381Z,24.60
2022-11-21T17:27:48.758Z,17.00
2022-11-21T17:32:50.192Z,16.40
2022-11-21T17:37:51.552Z,16.55
2022-11-21T17:42:53.062Z,15.65
2022-11-21T17:47:54.581Z,16.48
2022-11-21T17:52:57.012Z,16.58
2022-11-21T17:57:58.542Z,14.68
2022-11-21T18:02:59.904Z,12.52
2022-11-21T18:08:01.388Z,11.45
2022-11-21T18:13:02.802Z,12.80
2022-11-21T18:18:04.483Z,12.82
2022-11-21T18:23:05.894Z,17.48
2022-11-21T18:28:07.366Z,17.42
2022-11-21T18:33:13.396Z,14.50
2022-11-21T18:38:40.575Z,14.00
2022-11-21T18:43:40.334Z,12.27
2022-11-21T18:49:01.451Z,11.98
2022-11-21T18:54:08.403Z,14.07
2022-11-21T18:59:10.568Z,12.40
2022-11-21T19:04:12.108Z,12.20
2022-11-21T19:09:14.839Z,10.82
2022-11-21T19:14:16.274Z,11.68
2022-11-21T19:19:35.049Z,7.50
2022-11-21T19:24:36.891Z,8.02
2022-11-21T19:29:40.230Z,11.27
2022-11-21T19:34:41.646Z,8.40
2022-11-21T19:39:43.102Z,7.18
2022-11-21T19:44:45.879Z,9.20
2022-11-21T19:49:47.481Z,9.43
2022-11-21T19:54:49.091Z,12.43
2022-11-21T19:59:50.602Z,6.95
2022-11-21T20:04:54.176Z,5.57
2022-11-21T20:09:55.634Z,7.30
2022-11-21T20:14:57.202Z,5.75
2022-11-21T20:19:58.952Z,5.25
2022-11-21T20:25:01.504Z,6.03
2022-11-21T20:30:03.725Z,7.78
2022-11-21T20:35:05.556Z,7.05
2022-11-21T20:40:10.819Z,7.22
2022-11-21T20:46:06.531Z,8.32
2022-11-21T20:51:25.222Z,11.20
2022-11-21T20:56:02.735Z,5.55
2022-11-21T21:01:06.435Z,12.65
2022-11-21T21:06:11.095Z,5.72
2022-11-21T21:11:36.931Z,7.35
2022-11-21T21:16:36.912Z,7.35
2022-11-21T21:21:40.171Z,6.53
2022-11-21T21:26:45.488Z,6.38
2022-11-21T21:31:51.756Z,5.07
2022-11-21T21:36:54.279Z,5.82
2022-11-21T21:41:55.830Z,5.18
2022-11-21T21:46:57.324Z,5.65
2022-11-21T21:51:58.836Z,6.03
2022-11-21T21:57:01.510Z,8.00
2022-11-21T22:02:03.707Z,5.90
2022-11-21T22:07:05.915Z,5.45
2022-11-21T22:12:07.607Z,4.80
2022-11-21T22:17:11.593Z,4.88
2022-11-21T22:22:13.199Z,4.00
2022-11-21T22:27:14.686Z,4.68
2022-11-21T22:32:19.609Z,5.22
2022-11-21T22:37:21.686Z,5.32
2022-11-21T22:42:23.250Z,4.60
2022-11-21T22:47:24.642Z,4.15
2022-11-21T22:52:26.132Z,4.93
2022-11-21T22:57:27.726Z,4.80
2022-11-21T23:02:29.156Z,5.20
2022-11-21T23:07:32.338Z,3.92
2022-11-21T23:12:33.783Z,5.07
2022-11-21T23:17:35.365Z,5.35
2022-11-21T23:22:36.799Z,4.38
2022-11-21T23:27:38.178Z,4.85
2022-11-21T23:32:39.572Z,5.00
2022-11-21T23:37:40.971Z,3.83
2022-11-21T23:42:42.446Z,4.13
2022-11-21T23:47:44.028Z,4.90
2022-11-21T23:52:45.491Z,5.20
2022-11-21T23:57:50.305Z,5.72
